sensor_id;sensor_type;location;lat;lon;timestamp;P1;durP1;ratioP1;P2;durP2;ratioP2
75628;SDS011;64213;46.452;16.994;2023-06-10T00:00:55;14.20;;;7.50;;
75628;SDS011;64213;46.452;16.994;2023-06-10T00:03:57;14.87;;;6.67;;
75628;SDS011;64213;46.452;16.994;2023-06-10T00:07:00;14.15;;;7.03;;
75628;SDS011;64213;46.452;16.994;2023-06-10T00:10:02;14.20;;;7.25;;
75628;SDS011;64213;46.452;16.994;2023-06-10T00:13:07;13.93;;;6.90;;
75628;SDS011;64213;46.452;16.994;2023-06-10T00:16:12;16.50;;;7.68;;
75628;SDS011;64213;46.452;16.994;2023-06-10T00:19:15;13.53;;;7.03;;
75628;SDS011;64213;46.452;16.994;2023-06-10T00:22:17;14.98;;;7.50;;
75628;SDS011;64213;46.452;16.994;2023-06-10T00:25:19;17.30;;;6.32;;
75628;SDS011;64213;46.452;16.994;2023-06-10T00:28:22;14.48;;;6.90;;
75628;SDS011;64213;46.452;16.994;2023-06-10T00:31:24;14.55;;;7.03;;
75628;SDS011;64213;46.452;16.994;2023-06-10T00:34:28;13.40;;;6.40;;
75628;SDS011;64213;46.452;16.994;2023-06-10T00:37:30;13.85;;;6.72;;
75628;SDS011;64213;46.452;16.994;2023-06-10T00:40:33;12.90;;;6.85;;
75628;SDS011;64213;46.452;16.994;2023-06-10T00:43:40;12.55;;;6.05;;
75628;SDS011;64213;46.452;16.994;2023-06-10T00:46:43;13.15;;;6.43;;
75628;SDS011;64213;46.452;16.994;2023-06-10T00:49:46;13.60;;;6.27;;
75628;SDS011;64213;46.452;16.994;2023-06-10T00:52:49;13.60;;;6.47;;
75628;SDS011;64213;46.452;16.994;2023-06-10T00:55:56;12.95;;;6.18;;
75628;SDS011;64213;46.452;16.994;2023-06-10T00:58:58;12.68;;;5.95;;
75628;SDS011;64213;46.452;16.994;2023-06-10T01:02:01;12.73;;;6.65;;
75628;SDS011;64213;46.452;16.994;2023-06-10T01:05:04;13.87;;;6.30;;
75628;SDS011;64213;46.452;16.994;2023-06-10T01:08:17;12.80;;;6.47;;
75628;SDS011;64213;46.452;16.994;2023-06-10T01:11:34;12.27;;;5.68;;
75628;SDS011;64213;46.452;16.994;2023-06-10T01:14:43;13.73;;;5.78;;
75628;SDS011;64213;46.452;16.994;2023-06-10T01:17:53;13.35;;;6.20;;
75628;SDS011;64213;46.452;16.994;2023-06-10T01:21:00;14.97;;;6.33;;
75628;SDS011;64213;46.452;16.994;2023-06-10T01:24:02;12.05;;;5.80;;
75628;SDS011;64213;46.452;16.994;2023-06-10T01:27:05;13.85;;;6.18;;
75628;SDS011;64213;46.452;16.994;2023-06-10T01:30:15;12.85;;;6.32;;
75628;SDS011;64213;46.452;16.994;2023-06-10T01:33:28;13.50;;;6.37;;
75628;SDS011;64213;46.452;16.994;2023-06-10T01:36:35;13.43;;;6.07;;
75628;SDS011;64213;46.452;16.994;2023-06-10T01:39:39;13.05;;;6.10;;
75628;SDS011;64213;46.452;16.994;2023-06-10T01:42:42;15.70;;;6.07;;
75628;SDS011;64213;46.452;16.994;2023-06-10T01:45:45;13.00;;;5.95;;
75628;SDS011;64213;46.452;16.994;2023-06-10T01:48:47;12.65;;;6.07;;
75628;SDS011;64213;46.452;16.994;2023-06-10T01:51:50;13.77;;;6.00;;
75628;SDS011;64213;46.452;16.994;2023-06-10T01:54:52;13.73;;;6.25;;
75628;SDS011;64213;46.452;16.994;2023-06-10T01:57:54;11.73;;;6.10;;
75628;SDS011;64213;46.452;16.994;2023-06-10T02:00:57;12.85;;;5.87;;
75628;SDS011;64213;46.452;16.994;2023-06-10T02:03:59;13.02;;;6.05;;
75628;SDS011;64213;46.452;16.994;2023-06-10T02:07:01;13.53;;;6.30;;
75628;SDS011;64213;46.452;16.994;2023-06-10T02:10:06;13.32;;;6.22;;
75628;SDS011;64213;46.452;16.994;2023-06-10T02:13:09;12.68;;;6.30;;
75628;SDS011;64213;46.452;16.994;2023-06-10T02:16:11;13.23;;;6.28;;
75628;SDS011;64213;46.452;16.994;2023-06-10T02:19:14;13.02;;;6.15;;
75628;SDS011;64213;46.452;16.994;2023-06-10T02:22:17;12.67;;;6.07;;
75628;SDS011;64213;46.452;16.994;2023-06-10T02:25:19;13.18;;;5.20;;
75628;SDS011;64213;46.452;16.994;2023-06-10T02:28:21;13.30;;;5.90;;
75628;SDS011;64213;46.452;16.994;2023-06-10T02:31:24;12.27;;;5.75;;
75628;SDS011;64213;46.452;16.994;2023-06-10T02:34:27;13.50;;;5.30;;
75628;SDS011;64213;46.452;16.994;2023-06-10T02:37:29;14.63;;;5.23;;
75628;SDS011;64213;46.452;16.994;2023-06-10T02:40:31;14.07;;;5.22;;
75628;SDS011;64213;46.452;16.994;2023-06-10T02:43:34;12.07;;;5.20;;
75628;SDS011;64213;46.452;16.994;2023-06-10T02:46:36;13.15;;;5.22;;
75628;SDS011;64213;46.452;16.994;2023-06-10T02:49:38;12.15;;;5.15;;
75628;SDS011;64213;46.452;16.994;2023-06-10T02:52:41;11.00;;;4.83;;
75628;SDS011;64213;46.452;16.994;2023-06-10T02:55:44;10.52;;;5.07;;
75628;SDS011;64213;46.452;16.994;2023-06-10T02:58:46;11.40;;;5.00;;
75628;SDS011;64213;46.452;16.994;2023-06-10T03:01:50;14.85;;;5.40;;
75628;SDS011;64213;46.452;16.994;2023-06-10T03:04:52;13.70;;;5.40;;
75628;SDS011;64213;46.452;16.994;2023-06-10T03:07:55;11.87;;;4.73;;
75628;SDS011;64213;46.452;16.994;2023-06-10T03:10:57;10.98;;;4.90;;
75628;SDS011;64213;46.452;16.994;2023-06-10T03:13:59;11.73;;;5.25;;
75628;SDS011;64213;46.452;16.994;2023-06-10T03:17:02;11.63;;;5.68;;
75628;SDS011;64213;46.452;16.994;2023-06-10T03:20:05;12.25;;;5.72;;
75628;SDS011;64213;46.452;16.994;2023-06-10T03:23:09;12.83;;;5.23;;
75628;SDS011;64213;46.452;16.994;2023-06-10T03:26:12;11.85;;;5.35;;
75628;SDS011;64213;46.452;16.994;2023-06-10T03:29:17;17.35;;;6.00;;
75628;SDS011;64213;46.452;16.994;2023-06-10T03:32:19;13.02;;;5.57;;
75628;SDS011;64213;46.452;16.994;2023-06-10T03:35:21;11.60;;;5.25;;
75628;SDS011;64213;46.452;16.994;2023-06-10T03:38:24;11.80;;;5.27;;
75628;SDS011;64213;46.452;16.994;2023-06-10T03:41:26;12.88;;;5.57;;
75628;SDS011;64213;46.452;16.994;2023-06-10T03:44:28;9.93;;;4.37;;
75628;SDS011;64213;46.452;16.994;2023-06-10T03:47:34;12.30;;;5.60;;
75628;SDS011;64213;46.452;16.994;2023-06-10T03:50:37;11.98;;;5.65;;
75628;SDS011;64213;46.452;16.994;2023-06-10T03:53:39;12.67;;;5.43;;
75628;SDS011;64213;46.452;16.994;2023-06-10T03:56:42;13.65;;;5.10;;
75628;SDS011;64213;46.452;16.994;2023-06-10T03:59:44;11.93;;;4.87;;
75628;SDS011;64213;46.452;16.994;2023-06-10T04:02:46;11.60;;;4.82;;
75628;SDS011;64213;46.452;16.994;2023-06-10T04:05:51;11.85;;;5.03;;
75628;SDS011;64213;46.452;16.994;2023-06-10T04:08:53;10.73;;;4.53;;
75628;SDS011;64213;46.452;16.994;2023-06-10T04:11:57;12.10;;;4.75;;
75628;SDS011;64213;46.452;16.994;2023-06-10T04:15:00;10.13;;;4.30;;
75628;SDS011;64213;46.452;16.994;2023-06-10T04:18:02;10.73;;;4.82;;
75628;SDS011;64213;46.452;16.994;2023-06-10T04:21:05;11.18;;;4.72;;
75628;SDS011;64213;46.452;16.994;2023-06-10T04:24:07;9.83;;;4.37;;
75628;SDS011;64213;46.452;16.994;2023-06-10T04:27:09;11.93;;;4.82;;
75628;SDS011;64213;46.452;16.994;2023-06-10T04:30:12;11.43;;;4.60;;
75628;SDS011;64213;46.452;16.994;2023-06-10T04:33:15;9.80;;;3.90;;
75628;SDS011;64213;46.452;16.994;2023-06-10T04:36:18;10.57;;;4.25;;
75628;SDS011;64213;46.452;16.994;2023-06-10T04:39:20;10.97;;;3.90;;
75628;SDS011;64213;46.452;16.994;2023-06-10T04:42:22;10.27;;;4.03;;
75628;SDS011;64213;46.452;16.994;2023-06-10T04:45:24;10.35;;;4.20;;
75628;SDS011;64213;46.452;16.994;2023-06-10T04:48:27;11.90;;;4.30;;
75628;SDS011;64213;46.452;16.994;2023-06-10T04:51:29;10.70;;;4.62;;
75628;SDS011;64213;46.452;16.994;2023-06-10T04:54:31;11.13;;;4.10;;
75628;SDS011;64213;46.452;16.994;2023-06-10T04:57:34;9.85;;;4.40;;
75628;SDS011;64213;46.452;16.994;2023-06-10T05:00:36;11.35;;;4.32;;
75628;SDS011;64213;46.452;16.994;2023-06-10T05:03:38;14.35;;;4.40;;
75628;SDS011;64213;46.452;16.994;2023-06-10T05:06:40;10.00;;;4.03;;
75628;SDS011;64213;46.452;16.994;2023-06-10T05:09:43;13.23;;;4.30;;
75628;SDS011;64213;46.452;16.994;2023-06-10T05:12:45;10.10;;;4.35;;
75628;SDS011;64213;46.452;16.994;2023-06-10T05:15:47;12.55;;;4.95;;
75628;SDS011;64213;46.452;16.994;2023-06-10T05:18:50;11.77;;;5.07;;
75628;SDS011;64213;46.452;16.994;2023-06-10T05:21:54;9.40;;;4.37;;
75628;SDS011;64213;46.452;16.994;2023-06-10T05:24:56;10.57;;;4.47;;
75628;SDS011;64213;46.452;16.994;2023-06-10T05:27:58;11.98;;;4.50;;
75628;SDS011;64213;46.452;16.994;2023-06-10T05:31:01;11.07;;;4.53;;
75628;SDS011;64213;46.452;16.994;2023-06-10T05:34:03;8.77;;;3.70;;
75628;SDS011;64213;46.452;16.994;2023-06-10T05:37:05;10.93;;;4.37;;
75628;SDS011;64213;46.452;16.994;2023-06-10T05:40:08;10.20;;;3.70;;
75628;SDS011;64213;46.452;16.994;2023-06-10T05:43:10;11.07;;;4.35;;
75628;SDS011;64213;46.452;16.994;2023-06-10T05:46:13;10.40;;;4.07;;
75628;SDS011;64213;46.452;16.994;2023-06-10T05:49:15;11.48;;;4.45;;
75628;SDS011;64213;46.452;16.994;2023-06-10T05:52:18;9.80;;;4.07;;
75628;SDS011;64213;46.452;16.994;2023-06-10T05:55:20;11.77;;;4.13;;
75628;SDS011;64213;46.452;16.994;2023-06-10T05:58:23;11.40;;;4.25;;
75628;SDS011;64213;46.452;16.994;2023-06-10T06:01:26;10.10;;;4.60;;
75628;SDS011;64213;46.452;16.994;2023-06-10T06:08:10;11.35;;;3.95;;
75628;SDS011;64213;46.452;16.994;2023-06-10T06:11:12;9.77;;;3.90;;
75628;SDS011;64213;46.452;16.994;2023-06-10T06:17:55;9.75;;;4.10;;
75628;SDS011;64213;46.452;16.994;2023-06-10T06:20:57;10.23;;;3.97;;
75628;SDS011;64213;46.452;16.994;2023-06-10T06:24:00;9.43;;;4.50;;
75628;SDS011;64213;46.452;16.994;2023-06-10T06:27:02;9.17;;;3.90;;
75628;SDS011;64213;46.452;16.994;2023-06-10T06:30:04;10.23;;;4.15;;
75628;SDS011;64213;46.452;16.994;2023-06-10T06:33:08;9.55;;;3.78;;
75628;SDS011;64213;46.452;16.994;2023-06-10T06:36:10;10.93;;;4.40;;
75628;SDS011;64213;46.452;16.994;2023-06-10T06:39:12;10.77;;;3.90;;
75628;SDS011;64213;46.452;16.994;2023-06-10T06:42:15;9.53;;;3.60;;
75628;SDS011;64213;46.452;16.994;2023-06-10T06:45:18;12.25;;;4.25;;
75628;SDS011;64213;46.452;16.994;2023-06-10T06:48:20;8.70;;;2.67;;
75628;SDS011;64213;46.452;16.994;2023-06-10T06:51:22;10.18;;;3.92;;
75628;SDS011;64213;46.452;16.994;2023-06-10T06:54:24;10.80;;;4.15;;
75628;SDS011;64213;46.452;16.994;2023-06-10T06:57:27;9.17;;;3.80;;
75628;SDS011;64213;46.452;16.994;2023-06-10T07:00:29;10.60;;;4.62;;
75628;SDS011;64213;46.452;16.994;2023-06-10T07:03:32;10.88;;;4.47;;
75628;SDS011;64213;46.452;16.994;2023-06-10T07:06:34;9.73;;;4.03;;
75628;SDS011;64213;46.452;16.994;2023-06-10T07:09:39;7.55;;;2.95;;
75628;SDS011;64213;46.452;16.994;2023-06-10T07:12:41;9.83;;;4.87;;
75628;SDS011;64213;46.452;16.994;2023-06-10T07:15:43;11.45;;;4.65;;
75628;SDS011;64213;46.452;16.994;2023-06-10T07:18:46;12.52;;;4.43;;
75628;SDS011;64213;46.452;16.994;2023-06-10T07:21:48;13.85;;;4.45;;
75628;SDS011;64213;46.452;16.994;2023-06-10T07:24:50;10.93;;;4.80;;
75628;SDS011;64213;46.452;16.994;2023-06-10T07:27:53;13.13;;;4.53;;
75628;SDS011;64213;46.452;16.994;2023-06-10T07:30:55;11.48;;;5.12;;
75628;SDS011;64213;46.452;16.994;2023-06-10T07:33:58;10.38;;;4.70;;
75628;SDS011;64213;46.452;16.994;2023-06-10T07:37:00;11.23;;;4.90;;
75628;SDS011;64213;46.452;16.994;2023-06-10T07:40:02;10.48;;;4.50;;
75628;SDS011;64213;46.452;16.994;2023-06-10T07:43:05;10.97;;;4.80;;
75628;SDS011;64213;46.452;16.994;2023-06-10T07:46:07;16.02;;;5.03;;
75628;SDS011;64213;46.452;16.994;2023-06-10T07:49:09;11.77;;;4.87;;
75628;SDS011;64213;46.452;16.994;2023-06-10T07:52:11;14.73;;;4.87;;
75628;SDS011;64213;46.452;16.994;2023-06-10T07:55:14;11.93;;;4.65;;
75628;SDS011;64213;46.452;16.994;2023-06-10T07:58:16;11.37;;;5.37;;
75628;SDS011;64213;46.452;16.994;2023-06-10T08:01:18;11.98;;;5.00;;
75628;SDS011;64213;46.452;16.994;2023-06-10T08:04:20;9.93;;;4.65;;
75628;SDS011;64213;46.452;16.994;2023-06-10T08:07:23;11.20;;;5.57;;
75628;SDS011;64213;46.452;16.994;2023-06-10T08:10:25;11.25;;;5.10;;
75628;SDS011;64213;46.452;16.994;2023-06-10T08:13:27;11.13;;;5.03;;
75628;SDS011;64213;46.452;16.994;2023-06-10T08:16:29;12.27;;;5.50;;
75628;SDS011;64213;46.452;16.994;2023-06-10T08:19:31;12.07;;;5.35;;
75628;SDS011;64213;46.452;16.994;2023-06-10T08:22:34;10.07;;;5.00;;
75628;SDS011;64213;46.452;16.994;2023-06-10T08:25:36;11.25;;;5.57;;
75628;SDS011;64213;46.452;16.994;2023-06-10T08:28:38;10.10;;;4.90;;
75628;SDS011;64213;46.452;16.994;2023-06-10T08:31:43;10.13;;;5.30;;
75628;SDS011;64213;46.452;16.994;2023-06-10T08:34:46;10.75;;;4.97;;
75628;SDS011;64213;46.452;16.994;2023-06-10T08:37:48;9.32;;;4.53;;
75628;SDS011;64213;46.452;16.994;2023-06-10T08:40:50;9.88;;;4.43;;
75628;SDS011;64213;46.452;16.994;2023-06-10T08:44:04;10.80;;;5.00;;
75628;SDS011;64213;46.452;16.994;2023-06-10T08:47:15;9.07;;;3.83;;
75628;SDS011;64213;46.452;16.994;2023-06-10T08:50:18;10.18;;;4.10;;
75628;SDS011;64213;46.452;16.994;2023-06-10T08:53:21;8.90;;;4.50;;
75628;SDS011;64213;46.452;16.994;2023-06-10T08:56:24;8.70;;;4.00;;
75628;SDS011;64213;46.452;16.994;2023-06-10T08:59:27;11.60;;;4.70;;
75628;SDS011;64213;46.452;16.994;2023-06-10T09:02:31;8.77;;;4.37;;
75628;SDS011;64213;46.452;16.994;2023-06-10T09:05:37;8.52;;;4.28;;
75628;SDS011;64213;46.452;16.994;2023-06-10T09:08:40;8.23;;;4.12;;
75628;SDS011;64213;46.452;16.994;2023-06-10T09:11:43;7.72;;;3.62;;
75628;SDS011;64213;46.452;16.994;2023-06-10T09:14:46;7.93;;;3.70;;
75628;SDS011;64213;46.452;16.994;2023-06-10T09:17:48;8.75;;;4.28;;
75628;SDS011;64213;46.452;16.994;2023-06-10T09:20:50;7.78;;;3.80;;
75628;SDS011;64213;46.452;16.994;2023-06-10T09:23:52;9.15;;;4.75;;
75628;SDS011;64213;46.452;16.994;2023-06-10T09:27:02;9.50;;;4.25;;
75628;SDS011;64213;46.452;16.994;2023-06-10T09:30:07;11.87;;;4.37;;
75628;SDS011;64213;46.452;16.994;2023-06-10T09:33:11;8.00;;;3.47;;
75628;SDS011;64213;46.452;16.994;2023-06-10T09:36:23;9.27;;;4.50;;
75628;SDS011;64213;46.452;16.994;2023-06-10T09:39:26;8.55;;;4.20;;
75628;SDS011;64213;46.452;16.994;2023-06-10T09:42:29;7.55;;;3.92;;
75628;SDS011;64213;46.452;16.994;2023-06-10T09:45:34;7.80;;;3.23;;
75628;SDS011;64213;46.452;16.994;2023-06-10T09:48:40;8.27;;;3.92;;
75628;SDS011;64213;46.452;16.994;2023-06-10T09:51:53;8.70;;;4.93;;
75628;SDS011;64213;46.452;16.994;2023-06-10T09:55:00;7.97;;;4.10;;
75628;SDS011;64213;46.452;16.994;2023-06-10T09:58:03;9.85;;;4.60;;
75628;SDS011;64213;46.452;16.994;2023-06-10T10:01:09;8.30;;;4.40;;
75628;SDS011;64213;46.452;16.994;2023-06-10T10:04:14;8.63;;;5.10;;
75628;SDS011;64213;46.452;16.994;2023-06-10T10:07:27;10.13;;;5.25;;
75628;SDS011;64213;46.452;16.994;2023-06-10T10:10:29;9.98;;;5.05;;
75628;SDS011;64213;46.452;16.994;2023-06-10T10:13:33;9.27;;;4.90;;
75628;SDS011;64213;46.452;16.994;2023-06-10T10:16:36;8.20;;;4.20;;
75628;SDS011;64213;46.452;16.994;2023-06-10T10:22:49;10.02;;;4.60;;
75628;SDS011;64213;46.452;16.994;2023-06-10T10:25:55;7.80;;;3.75;;
75628;SDS011;64213;46.452;16.994;2023-06-10T10:29:07;8.98;;;4.30;;
75628;SDS011;64213;46.452;16.994;2023-06-10T10:32:14;8.50;;;4.47;;
75628;SDS011;64213;46.452;16.994;2023-06-10T10:35:19;8.77;;;4.45;;
75628;SDS011;64213;46.452;16.994;2023-06-10T10:38:24;9.90;;;5.10;;
75628;SDS011;64213;46.452;16.994;2023-06-10T10:41:27;8.93;;;4.70;;
75628;SDS011;64213;46.452;16.994;2023-06-10T10:44:30;8.85;;;4.50;;
75628;SDS011;64213;46.452;16.994;2023-06-10T10:47:33;7.00;;;3.70;;
75628;SDS011;64213;46.452;16.994;2023-06-10T10:50:38;7.07;;;3.40;;
75628;SDS011;64213;46.452;16.994;2023-06-10T10:53:42;8.35;;;4.35;;
75628;SDS011;64213;46.452;16.994;2023-06-10T11:00:13;8.65;;;5.00;;
75628;SDS011;64213;46.452;16.994;2023-06-10T11:03:29;8.17;;;3.47;;
75628;SDS011;64213;46.452;16.994;2023-06-10T11:06:34;9.05;;;4.20;;
75628;SDS011;64213;46.452;16.994;2023-06-10T11:09:37;8.82;;;3.50;;
75628;SDS011;64213;46.452;16.994;2023-06-10T11:15:48;10.05;;;3.83;;
75628;SDS011;64213;46.452;16.994;2023-06-10T11:18:55;9.00;;;4.07;;
75628;SDS011;64213;46.452;16.994;2023-06-10T11:21:59;9.10;;;3.97;;
75628;SDS011;64213;46.452;16.994;2023-06-10T11:25:02;8.35;;;3.90;;
75628;SDS011;64213;46.452;16.994;2023-06-10T11:28:17;8.77;;;4.10;;
75628;SDS011;64213;46.452;16.994;2023-06-10T11:31:27;10.95;;;4.50;;
75628;SDS011;64213;46.452;16.994;2023-06-10T11:34:31;7.33;;;3.30;;
75628;SDS011;64213;46.452;16.994;2023-06-10T11:37:33;8.05;;;4.40;;
75628;SDS011;64213;46.452;16.994;2023-06-10T11:40:36;8.63;;;4.62;;
75628;SDS011;64213;46.452;16.994;2023-06-10T11:43:44;9.25;;;4.78;;
75628;SDS011;64213;46.452;16.994;2023-06-10T11:46:48;9.07;;;4.70;;
75628;SDS011;64213;46.452;16.994;2023-06-10T11:49:57;10.97;;;4.77;;
75628;SDS011;64213;46.452;16.994;2023-06-10T11:53:00;8.90;;;4.80;;
75628;SDS011;64213;46.452;16.994;2023-06-10T11:56:03;8.98;;;4.97;;
75628;SDS011;64213;46.452;16.994;2023-06-10T11:59:06;8.40;;;4.65;;
75628;SDS011;64213;46.452;16.994;2023-06-10T12:02:14;8.20;;;4.20;;
75628;SDS011;64213;46.452;16.994;2023-06-10T12:05:21;10.53;;;4.50;;
75628;SDS011;64213;46.452;16.994;2023-06-10T12:08:23;8.75;;;4.65;;
75628;SDS011;64213;46.452;16.994;2023-06-10T12:11:26;12.10;;;5.10;;
75628;SDS011;64213;46.452;16.994;2023-06-10T12:18:01;7.80;;;4.00;;
75628;SDS011;64213;46.452;16.994;2023-06-10T12:21:14;7.30;;;3.13;;
75628;SDS011;64213;46.452;16.994;2023-06-10T12:24:18;7.72;;;3.78;;
75628;SDS011;64213;46.452;16.994;2023-06-10T12:27:20;8.02;;;3.62;;
75628;SDS011;64213;46.452;16.994;2023-06-10T12:30:23;8.10;;;4.28;;
75628;SDS011;64213;46.452;16.994;2023-06-10T12:33:28;7.93;;;4.03;;
75628;SDS011;64213;46.452;16.994;2023-06-10T12:36:30;7.60;;;3.30;;
75628;SDS011;64213;46.452;16.994;2023-06-10T12:39:34;6.65;;;2.75;;
75628;SDS011;64213;46.452;16.994;2023-06-10T12:42:36;8.43;;;4.05;;
75628;SDS011;64213;46.452;16.994;2023-06-10T12:45:40;7.55;;;3.80;;
75628;SDS011;64213;46.452;16.994;2023-06-10T12:48:49;7.78;;;4.00;;
75628;SDS011;64213;46.452;16.994;2023-06-10T12:51:53;7.97;;;3.80;;
75628;SDS011;64213;46.452;16.994;2023-06-10T12:54:56;8.38;;;4.28;;
75628;SDS011;64213;46.452;16.994;2023-06-10T12:57:59;8.05;;;4.00;;
75628;SDS011;64213;46.452;16.994;2023-06-10T13:01:02;8.88;;;3.92;;
75628;SDS011;64213;46.452;16.994;2023-06-10T13:04:04;8.57;;;3.83;;
75628;SDS011;64213;46.452;16.994;2023-06-10T13:07:08;7.33;;;3.07;;
75628;SDS011;64213;46.452;16.994;2023-06-10T13:10:15;7.80;;;3.90;;
75628;SDS011;64213;46.452;16.994;2023-06-10T13:13:18;8.70;;;3.97;;
75628;SDS011;64213;46.452;16.994;2023-06-10T13:16:20;7.93;;;3.92;;
75628;SDS011;64213;46.452;16.994;2023-06-10T13:19:23;7.93;;;3.30;;
75628;SDS011;64213;46.452;16.994;2023-06-10T13:22:25;8.57;;;4.23;;
75628;SDS011;64213;46.452;16.994;2023-06-10T13:25:29;8.43;;;4.28;;
75628;SDS011;64213;46.452;16.994;2023-06-10T13:28:31;7.60;;;3.60;;
75628;SDS011;64213;46.452;16.994;2023-06-10T13:31:36;7.85;;;3.40;;
75628;SDS011;64213;46.452;16.994;2023-06-10T13:34:38;7.53;;;2.70;;
75628;SDS011;64213;46.452;16.994;2023-06-10T13:37:41;8.40;;;3.93;;
75628;SDS011;64213;46.452;16.994;2023-06-10T13:40:43;8.93;;;3.67;;
75628;SDS011;64213;46.452;16.994;2023-06-10T13:43:45;8.73;;;4.05;;
75628;SDS011;64213;46.452;16.994;2023-06-10T13:46:48;8.48;;;3.35;;
75628;SDS011;64213;46.452;16.994;2023-06-10T13:49:51;7.97;;;3.20;;
75628;SDS011;64213;46.452;16.994;2023-06-10T13:52:53;7.60;;;2.97;;
75628;SDS011;64213;46.452;16.994;2023-06-10T13:55:55;8.55;;;3.05;;
75628;SDS011;64213;46.452;16.994;2023-06-10T13:58:57;6.70;;;2.65;;
75628;SDS011;64213;46.452;16.994;2023-06-10T14:02:03;8.93;;;3.70;;
75628;SDS011;64213;46.452;16.994;2023-06-10T14:05:06;8.82;;;4.07;;
75628;SDS011;64213;46.452;16.994;2023-06-10T14:08:10;7.83;;;3.50;;
75628;SDS011;64213;46.452;16.994;2023-06-10T14:11:13;8.73;;;3.85;;
75628;SDS011;64213;46.452;16.994;2023-06-10T14:14:15;7.82;;;3.62;;
75628;SDS011;64213;46.452;16.994;2023-06-10T14:17:17;8.88;;;3.65;;
75628;SDS011;64213;46.452;16.994;2023-06-10T14:20:20;7.90;;;3.37;;
75628;SDS011;64213;46.452;16.994;2023-06-10T14:23:22;6.90;;;3.03;;
75628;SDS011;64213;46.452;16.994;2023-06-10T14:26:26;8.20;;;3.55;;
75628;SDS011;64213;46.452;16.994;2023-06-10T14:29:28;6.78;;;2.90;;
75628;SDS011;64213;46.452;16.994;2023-06-10T14:32:31;7.90;;;3.83;;
75628;SDS011;64213;46.452;16.994;2023-06-10T14:35:33;7.85;;;3.87;;
75628;SDS011;64213;46.452;16.994;2023-06-10T14:38:36;8.50;;;4.13;;
75628;SDS011;64213;46.452;16.994;2023-06-10T14:41:38;8.32;;;3.70;;
75628;SDS011;64213;46.452;16.994;2023-06-10T14:44:40;9.15;;;3.85;;
75628;SDS011;64213;46.452;16.994;2023-06-10T14:47:42;7.25;;;3.30;;
75628;SDS011;64213;46.452;16.994;2023-06-10T14:50:44;9.73;;;4.10;;
75628;SDS011;64213;46.452;16.994;2023-06-10T14:53:52;7.30;;;3.67;;
75628;SDS011;64213;46.452;16.994;2023-06-10T14:56:54;7.70;;;3.80;;
75628;SDS011;64213;46.452;16.994;2023-06-10T14:59:56;7.90;;;4.35;;
75628;SDS011;64213;46.452;16.994;2023-06-10T15:02:59;7.68;;;3.83;;
75628;SDS011;64213;46.452;16.994;2023-06-10T15:06:01;7.60;;;3.67;;
75628;SDS011;64213;46.452;16.994;2023-06-10T15:09:03;8.20;;;3.63;;
75628;SDS011;64213;46.452;16.994;2023-06-10T15:12:05;9.48;;;3.80;;
75628;SDS011;64213;46.452;16.994;2023-06-10T15:15:08;7.40;;;3.37;;
75628;SDS011;64213;46.452;16.994;2023-06-10T15:18:11;7.70;;;3.42;;
75628;SDS011;64213;46.452;16.994;2023-06-10T15:21:13;7.78;;;3.97;;
75628;SDS011;64213;46.452;16.994;2023-06-10T15:24:15;7.47;;;3.80;;
75628;SDS011;64213;46.452;16.994;2023-06-10T15:27:18;7.85;;;3.90;;
75628;SDS011;64213;46.452;16.994;2023-06-10T15:30:20;8.00;;;4.07;;
75628;SDS011;64213;46.452;16.994;2023-06-10T15:33:23;8.75;;;3.60;;
75628;SDS011;64213;46.452;16.994;2023-06-10T15:36:25;8.80;;;3.70;;
75628;SDS011;64213;46.452;16.994;2023-06-10T15:39:28;7.50;;;3.70;;
75628;SDS011;64213;46.452;16.994;2023-06-10T15:42:32;10.50;;;3.80;;
75628;SDS011;64213;46.452;16.994;2023-06-10T15:45:35;8.93;;;4.00;;
75628;SDS011;64213;46.452;16.994;2023-06-10T15:48:37;8.10;;;4.00;;
75628;SDS011;64213;46.452;16.994;2023-06-10T15:51:39;9.32;;;4.18;;
75628;SDS011;64213;46.452;16.994;2023-06-10T15:54:48;8.30;;;4.03;;
75628;SDS011;64213;46.452;16.994;2023-06-10T15:57:51;8.90;;;3.72;;
75628;SDS011;64213;46.452;16.994;2023-06-10T16:00:53;7.72;;;4.00;;
75628;SDS011;64213;46.452;16.994;2023-06-10T16:03:55;7.80;;;3.70;;
75628;SDS011;64213;46.452;16.994;2023-06-10T16:06:57;9.75;;;3.83;;
75628;SDS011;64213;46.452;16.994;2023-06-10T16:09:59;8.43;;;3.97;;
75628;SDS011;64213;46.452;16.994;2023-06-10T16:13:02;8.73;;;3.80;;
75628;SDS011;64213;46.452;16.994;2023-06-10T16:16:04;7.75;;;3.60;;
75628;SDS011;64213;46.452;16.994;2023-06-10T16:19:07;9.27;;;4.00;;
75628;SDS011;64213;46.452;16.994;2023-06-10T16:22:09;8.95;;;4.53;;
75628;SDS011;64213;46.452;16.994;2023-06-10T16:25:11;7.70;;;3.53;;
75628;SDS011;64213;46.452;16.994;2023-06-10T16:28:14;8.20;;;3.70;;
75628;SDS011;64213;46.452;16.994;2023-06-10T16:31:16;8.68;;;4.20;;
75628;SDS011;64213;46.452;16.994;2023-06-10T16:34:18;9.00;;;4.20;;
75628;SDS011;64213;46.452;16.994;2023-06-10T16:37:20;8.05;;;3.90;;
75628;SDS011;64213;46.452;16.994;2023-06-10T16:40:22;8.20;;;3.83;;
75628;SDS011;64213;46.452;16.994;2023-06-10T16:43:25;9.40;;;4.25;;
75628;SDS011;64213;46.452;16.994;2023-06-10T16:46:28;9.63;;;4.72;;
75628;SDS011;64213;46.452;16.994;2023-06-10T16:49:30;8.55;;;4.32;;
75628;SDS011;64213;46.452;16.994;2023-06-10T16:52:32;9.00;;;4.22;;
75628;SDS011;64213;46.452;16.994;2023-06-10T16:55:35;8.00;;;3.93;;
75628;SDS011;64213;46.452;16.994;2023-06-10T16:58:40;9.15;;;4.12;;
75628;SDS011;64213;46.452;16.994;2023-06-10T17:01:42;10.10;;;4.78;;
75628;SDS011;64213;46.452;16.994;2023-06-10T17:04:44;10.43;;;4.62;;
75628;SDS011;64213;46.452;16.994;2023-06-10T17:07:46;8.82;;;4.20;;
75628;SDS011;64213;46.452;16.994;2023-06-10T17:10:49;8.90;;;4.00;;
75628;SDS011;64213;46.452;16.994;2023-06-10T17:13:51;8.38;;;3.75;;
75628;SDS011;64213;46.452;16.994;2023-06-10T17:16:54;8.63;;;3.58;;
75628;SDS011;64213;46.452;16.994;2023-06-10T17:19:56;9.13;;;4.03;;
75628;SDS011;64213;46.452;16.994;2023-06-10T17:22:58;9.57;;;4.07;;
75628;SDS011;64213;46.452;16.994;2023-06-10T17:26:00;11.73;;;3.90;;
75628;SDS011;64213;46.452;16.994;2023-06-10T17:29:03;8.23;;;3.60;;
75628;SDS011;64213;46.452;16.994;2023-06-10T17:32:05;9.35;;;4.00;;
75628;SDS011;64213;46.452;16.994;2023-06-10T17:35:08;8.98;;;3.50;;
75628;SDS011;64213;46.452;16.994;2023-06-10T17:38:11;8.38;;;3.67;;
75628;SDS011;64213;46.452;16.994;2023-06-10T17:41:13;8.40;;;3.67;;
75628;SDS011;64213;46.452;16.994;2023-06-10T17:44:15;8.95;;;3.53;;
75628;SDS011;64213;46.452;16.994;2023-06-10T17:47:17;8.43;;;3.35;;
75628;SDS011;64213;46.452;16.994;2023-06-10T17:50:20;8.73;;;4.18;;
75628;SDS011;64213;46.452;16.994;2023-06-10T17:53:23;8.02;;;3.67;;
75628;SDS011;64213;46.452;16.994;2023-06-10T17:56:25;8.70;;;3.77;;
75628;SDS011;64213;46.452;16.994;2023-06-10T17:59:27;10.15;;;3.83;;
75628;SDS011;64213;46.452;16.994;2023-06-10T18:02:29;11.75;;;4.32;;
75628;SDS011;64213;46.452;16.994;2023-06-10T18:05:31;8.40;;;3.47;;
75628;SDS011;64213;46.452;16.994;2023-06-10T18:08:34;9.18;;;3.97;;
75628;SDS011;64213;46.452;16.994;2023-06-10T18:11:37;8.70;;;4.13;;
75628;SDS011;64213;46.452;16.994;2023-06-10T18:14:39;9.43;;;3.78;;
75628;SDS011;64213;46.452;16.994;2023-06-10T18:17:41;8.57;;;3.92;;
75628;SDS011;64213;46.452;16.994;2023-06-10T18:20:44;8.70;;;4.12;;